sensor_id;sensor_type;location;lat;lon;timestamp;pressure;altitude;pressure_sealevel;temperature;humidity
64687;BME280;51113;53.646;-113.674;2023-05-02T00:01:13;92663.06;;;27.08;16.81
64687;BME280;51113;53.646;-113.674;2023-05-02T00:03:42;92670.56;;;27.34;17.30
64687;BME280;51113;53.646;-113.674;2023-05-02T00:06:12;92676.84;;;27.72;16.43
64687;BME280;51113;53.646;-113.674;2023-05-02T00:08:40;92683.25;;;27.82;16.04
64687;BME280;51113;53.646;-113.674;2023-05-02T00:11:09;92661.56;;;27.76;15.74
64687;BME280;51113;53.646;-113.674;2023-05-02T00:13:39;92678.97;;;27.95;15.62
64687;BME280;51113;53.646;-113.674;2023-05-02T00:16:07;92656.53;;;27.85;15.62
64687;BME280;51113;53.646;-113.674;2023-05-02T00:18:35;92664.19;;;27.80;15.67
64687;BME280;51113;53.646;-113.674;2023-05-02T00:21:03;92676.31;;;27.91;15.84
64687;BME280;51113;53.646;-113.674;2023-05-02T00:23:33;92679.00;;;27.91;15.84
64687;BME280;51113;53.646;-113.674;2023-05-02T00:26:01;92672.84;;;27.98;15.73
64687;BME280;51113;53.646;-113.674;2023-05-02T00:28:30;92672.88;;;27.91;15.76
64687;BME280;51113;53.646;-113.674;2023-05-02T00:31:00;92668.75;;;27.83;15.85
64687;BME280;51113;53.646;-113.674;2023-05-02T00:33:29;92670.69;;;27.79;15.41
64687;BME280;51113;53.646;-113.674;2023-05-02T00:35:58;92657.44;;;27.64;15.77
64687;BME280;51113;53.646;-113.674;2023-05-02T00:38:26;92664.31;;;27.58;15.64
64687;BME280;51113;53.646;-113.674;2023-05-02T00:40:55;92660.59;;;27.45;15.56
64687;BME280;51113;53.646;-113.674;2023-05-02T00:43:24;92663.94;;;27.56;15.84
64687;BME280;51113;53.646;-113.674;2023-05-02T00:45:53;92659.75;;;27.55;15.86
64687;BME280;51113;53.646;-113.674;2023-05-02T00:48:24;92639.34;;;27.31;15.82
64687;BME280;51113;53.646;-113.674;2023-05-02T00:50:53;92627.19;;;27.23;16.03
64687;BME280;51113;53.646;-113.674;2023-05-02T00:53:21;92659.06;;;27.44;16.02
64687;BME280;51113;53.646;-113.674;2023-05-02T00:55:49;92662.56;;;27.34;15.62
64687;BME280;51113;53.646;-113.674;2023-05-02T00:58:19;92652.41;;;27.08;15.60
64687;BME280;51113;53.646;-113.674;2023-05-02T01:06:55;92667.78;;;26.64;16.34
64687;BME280;51113;53.646;-113.674;2023-05-02T01:09:47;92668.97;;;26.49;16.45
64687;BME280;51113;53.646;-113.674;2023-05-02T01:14:58;92675.84;;;26.11;17.20
64687;BME280;51113;53.646;-113.674;2023-05-02T01:17:31;92671.66;;;26.10;16.96
64687;BME280;51113;53.646;-113.674;2023-05-02T01:20:07;92668.63;;;25.94;17.19
64687;BME280;51113;53.646;-113.674;2023-05-02T01:22:38;92644.25;;;25.56;17.66
64687;BME280;51113;53.646;-113.674;2023-05-02T01:30:24;92677.31;;;25.59;17.61
64687;BME280;51113;53.646;-113.674;2023-05-02T01:32:56;92679.97;;;25.52;17.47
64687;BME280;51113;53.646;-113.674;2023-05-02T01:35:26;92683.34;;;25.38;17.66
64687;BME280;51113;53.646;-113.674;2023-05-02T01:37:56;92682.19;;;25.32;17.73
64687;BME280;51113;53.646;-113.674;2023-05-02T01:40:26;92660.91;;;25.25;17.55
64687;BME280;51113;53.646;-113.674;2023-05-02T01:42:57;92679.16;;;25.26;17.94
64687;BME280;51113;53.646;-113.674;2023-05-02T01:45:27;92674.53;;;25.05;18.23
64687;BME280;51113;53.646;-113.674;2023-05-02T01:47:57;92688.19;;;25.04;18.45
64687;BME280;51113;53.646;-113.674;2023-05-02T01:50:26;92688.97;;;25.15;18.02
64687;BME280;51113;53.646;-113.674;2023-05-02T01:52:58;92691.59;;;25.04;18.02
64687;BME280;51113;53.646;-113.674;2023-05-02T01:55:29;92695.78;;;25.05;18.22
64687;BME280;51113;53.646;-113.674;2023-05-02T01:57:59;92700.63;;;24.89;18.10
64687;BME280;51113;53.646;-113.674;2023-05-02T02:00:32;92696.84;;;24.90;18.03
64687;BME280;51113;53.646;-113.674;2023-05-02T02:03:04;92696.06;;;24.86;17.90
64687;BME280;51113;53.646;-113.674;2023-05-02T02:05:36;92681.13;;;24.60;18.53
64687;BME280;51113;53.646;-113.674;2023-05-02T02:08:05;92695.97;;;24.68;18.40
64687;BME280;51113;53.646;-113.674;2023-05-02T02:10:40;92708.41;;;24.54;18.95
64687;BME280;51113;53.646;-113.674;2023-05-02T02:13:18;92702.25;;;24.39;19.21
64687;BME280;51113;53.646;-113.674;2023-05-02T02:15:52;92686.28;;;24.32;18.52
64687;BME280;51113;53.646;-113.674;2023-05-02T02:18:26;92694.22;;;24.28;18.91
64687;BME280;51113;53.646;-113.674;2023-05-02T02:20:57;92712.13;;;24.42;18.78
64687;BME280;51113;53.646;-113.674;2023-05-02T02:23:28;92720.88;;;24.46;18.63
64687;BME280;51113;53.646;-113.674;2023-05-02T02:25:57;92718.94;;;24.39;18.79
64687;BME280;51113;53.646;-113.674;2023-05-02T02:28:26;92722.72;;;24.35;18.86
64687;BME280;51113;53.646;-113.674;2023-05-02T02:30:55;92725.25;;;24.24;18.93
64687;BME280;51113;53.646;-113.674;2023-05-02T02:33:29;92728.34;;;24.26;18.91
64687;BME280;51113;53.646;-113.674;2023-05-02T02:36:07;92726.69;;;24.14;19.16
64687;BME280;51113;53.646;-113.674;2023-05-02T02:38:54;92731.97;;;24.07;19.56
64687;BME280;51113;53.646;-113.674;2023-05-02T02:41:35;92702.47;;;23.72;19.18
64687;BME280;51113;53.646;-113.674;2023-05-02T02:47:08;92740.38;;;23.72;19.46
64687;BME280;51113;53.646;-113.674;2023-05-02T02:52:30;92721.03;;;23.35;19.61
64687;BME280;51113;53.646;-113.674;2023-05-02T02:55:14;92745.78;;;23.49;19.90
64687;BME280;51113;53.646;-113.674;2023-05-02T03:00:24;92746.88;;;23.45;19.43
64687;BME280;51113;53.646;-113.674;2023-05-02T03:02:54;92752.81;;;23.35;19.78
64687;BME280;51113;53.646;-113.674;2023-05-02T03:05:24;92759.84;;;23.20;20.00
64687;BME280;51113;53.646;-113.674;2023-05-02T03:07:54;92764.53;;;23.00;20.05
64687;BME280;51113;53.646;-113.674;2023-05-02T03:10:23;92745.66;;;22.75;20.43
64687;BME280;51113;53.646;-113.674;2023-05-02T03:12:51;92745.28;;;22.77;20.60
64687;BME280;51113;53.646;-113.674;2023-05-02T03:18:09;92771.84;;;22.80;20.32
64687;BME280;51113;53.646;-113.674;2023-05-02T03:20:38;92744.53;;;22.50;20.69
64687;BME280;51113;53.646;-113.674;2023-05-02T03:23:06;92778.25;;;22.53;20.76
64687;BME280;51113;53.646;-113.674;2023-05-02T03:25:35;92774.63;;;22.65;20.81
64687;BME280;51113;53.646;-113.674;2023-05-02T03:28:04;92762.75;;;22.55;20.95
64687;BME280;51113;53.646;-113.674;2023-05-02T03:30:32;92787.75;;;22.58;20.70
64687;BME280;51113;53.646;-113.674;2023-05-02T03:33:02;92786.38;;;22.67;20.93
64687;BME280;51113;53.646;-113.674;2023-05-02T03:35:31;92789.28;;;22.59;20.97
64687;BME280;51113;53.646;-113.674;2023-05-02T03:38:00;92797.34;;;22.66;20.97
64687;BME280;51113;53.646;-113.674;2023-05-02T03:40:28;92772.31;;;22.37;21.20
64687;BME280;51113;53.646;-113.674;2023-05-02T03:42:57;92804.34;;;22.54;21.49
64687;BME280;51113;53.646;-113.674;2023-05-02T03:45:26;92802.56;;;22.36;22.33
64687;BME280;51113;53.646;-113.674;2023-05-02T03:47:54;92802.31;;;22.21;23.11
64687;BME280;51113;53.646;-113.674;2023-05-02T03:50:23;92810.78;;;22.08;23.50
64687;BME280;51113;53.646;-113.674;2023-05-02T03:52:52;92815.16;;;21.77;25.11
64687;BME280;51113;53.646;-113.674;2023-05-02T03:55:20;92805.78;;;21.41;25.73
64687;BME280;51113;53.646;-113.674;2023-05-02T03:57:49;92819.47;;;21.27;25.65
64687;BME280;51113;53.646;-113.674;2023-05-02T04:00:18;92835.97;;;21.05;25.52
64687;BME280;51113;53.646;-113.674;2023-05-02T04:02:47;92836.78;;;20.90;25.51
64687;BME280;51113;53.646;-113.674;2023-05-02T04:05:16;92837.16;;;20.73;25.82
64687;BME280;51113;53.646;-113.674;2023-05-02T04:07:44;92836.13;;;20.77;25.01
64687;BME280;51113;53.646;-113.674;2023-05-02T04:10:12;92833.38;;;20.89;24.53
64687;BME280;51113;53.646;-113.674;2023-05-02T04:12:43;92806.31;;;20.77;23.93
64687;BME280;51113;53.646;-113.674;2023-05-02T04:15:12;92811.94;;;20.75;23.89
64687;BME280;51113;53.646;-113.674;2023-05-02T04:17:41;92837.22;;;20.92;24.23
64687;BME280;51113;53.646;-113.674;2023-05-02T04:20:11;92817.00;;;20.64;24.91
64687;BME280;51113;53.646;-113.674;2023-05-02T04:22:48;92824.31;;;20.55;25.13
64687;BME280;51113;53.646;-113.674;2023-05-02T04:25:17;92840.31;;;20.62;24.83
64687;BME280;51113;53.646;-113.674;2023-05-02T04:27:45;92845.06;;;20.73;24.41
64687;BME280;51113;53.646;-113.674;2023-05-02T04:30:14;92842.69;;;20.68;24.59
64687;BME280;51113;53.646;-113.674;2023-05-02T04:32:42;92846.53;;;20.70;24.45
64687;BME280;51113;53.646;-113.674;2023-05-02T04:35:11;92857.94;;;20.74;24.23
64687;BME280;51113;53.646;-113.674;2023-05-02T04:37:40;92860.72;;;20.34;25.87
64687;BME280;51113;53.646;-113.674;2023-05-02T04:40:08;92843.19;;;19.94;26.53
64687;BME280;51113;53.646;-113.674;2023-05-02T04:42:37;92844.84;;;19.71;26.89
64687;BME280;51113;53.646;-113.674;2023-05-02T04:45:06;92873.09;;;19.58;27.48
64687;BME280;51113;53.646;-113.674;2023-05-02T04:47:36;92867.59;;;19.51;27.24
64687;BME280;51113;53.646;-113.674;2023-05-02T04:50:05;92874.78;;;19.39;27.52
64687;BME280;51113;53.646;-113.674;2023-05-02T04:52:34;92878.50;;;19.38;27.61
64687;BME280;51113;53.646;-113.674;2023-05-02T04:55:04;92872.59;;;19.41;27.37
64687;BME280;51113;53.646;-113.674;2023-05-02T04:57:33;92854.13;;;19.53;26.89
64687;BME280;51113;53.646;-113.674;2023-05-02T05:00:03;92879.00;;;19.67;26.49
64687;BME280;51113;53.646;-113.674;2023-05-02T05:02:33;92857.88;;;19.52;26.62
64687;BME280;51113;53.646;-113.674;2023-05-02T05:05:02;92881.97;;;19.66;26.31
64687;BME280;51113;53.646;-113.674;2023-05-02T05:07:31;92891.63;;;19.62;26.38
64687;BME280;51113;53.646;-113.674;2023-05-02T05:10:00;92869.34;;;19.19;26.77
64687;BME280;51113;53.646;-113.674;2023-05-02T05:12:29;92889.22;;;19.17;26.86
64687;BME280;51113;53.646;-113.674;2023-05-02T05:14:57;92894.59;;;19.08;27.05
64687;BME280;51113;53.646;-113.674;2023-05-02T05:17:26;92889.41;;;19.24;26.67
64687;BME280;51113;53.646;-113.674;2023-05-02T05:19:54;92888.09;;;19.30;26.42
64687;BME280;51113;53.646;-113.674;2023-05-02T05:22:23;92879.81;;;18.91;28.46
64687;BME280;51113;53.646;-113.674;2023-05-02T05:24:52;92904.16;;;18.64;29.44
64687;BME280;51113;53.646;-113.674;2023-05-02T05:27:21;92888.03;;;18.65;28.41
64687;BME280;51113;53.646;-113.674;2023-05-02T05:29:50;92885.72;;;18.52;28.19
64687;BME280;51113;53.646;-113.674;2023-05-02T05:32:18;92903.50;;;18.67;27.99
64687;BME280;51113;53.646;-113.674;2023-05-02T05:34:53;92879.28;;;18.61;28.93
64687;BME280;51113;53.646;-113.674;2023-05-02T05:37:22;92877.28;;;18.46;29.58
64687;BME280;51113;53.646;-113.674;2023-05-02T05:39:51;92885.94;;;18.47;28.77
64687;BME280;51113;53.646;-113.674;2023-05-02T05:42:19;92909.06;;;18.53;28.67
64687;BME280;51113;53.646;-113.674;2023-05-02T05:44:48;92914.78;;;18.67;29.20
64687;BME280;51113;53.646;-113.674;2023-05-02T05:47:19;92913.53;;;18.40;30.22
64687;BME280;51113;53.646;-113.674;2023-05-02T05:49:54;92909.38;;;18.52;28.48
64687;BME280;51113;53.646;-113.674;2023-05-02T05:52:23;92909.97;;;18.82;28.03
64687;BME280;51113;53.646;-113.674;2023-05-02T05:54:55;92908.22;;;18.61;28.92
64687;BME280;51113;53.646;-113.674;2023-05-02T05:57:24;92877.47;;;18.41;28.66
64687;BME280;51113;53.646;-113.674;2023-05-02T05:59:53;92908.00;;;18.66;29.29
64687;BME280;51113;53.646;-113.674;2023-05-02T06:02:21;92913.34;;;18.58;29.50
64687;BME280;51113;53.646;-113.674;2023-05-02T06:04:50;92913.25;;;18.66;29.42
64687;BME280;51113;53.646;-113.674;2023-05-02T06:07:19;92915.88;;;18.79;29.06
64687;BME280;51113;53.646;-113.674;2023-05-02T06:09:47;92884.88;;;18.72;28.76
64687;BME280;51113;53.646;-113.674;2023-05-02T06:12:16;92908.66;;;19.00;28.42
64687;BME280;51113;53.646;-113.674;2023-05-02T06:14:45;92914.56;;;19.09;27.86
64687;BME280;51113;53.646;-113.674;2023-05-02T06:17:14;92912.72;;;18.97;27.84
64687;BME280;51113;53.646;-113.674;2023-05-02T06:19:43;92890.25;;;18.76;27.53
64687;BME280;51113;53.646;-113.674;2023-05-02T06:22:11;92913.34;;;19.19;26.80
64687;BME280;51113;53.646;-113.674;2023-05-02T06:24:41;92905.78;;;19.17;26.88
64687;BME280;51113;53.646;-113.674;2023-05-02T06:27:09;92917.53;;;19.08;27.50
64687;BME280;51113;53.646;-113.674;2023-05-02T06:29:38;92919.50;;;18.98;27.60
64687;BME280;51113;53.646;-113.674;2023-05-02T06:32:07;92922.47;;;18.85;27.48
64687;BME280;51113;53.646;-113.674;2023-05-02T06:34:36;92921.81;;;18.76;27.87
64687;BME280;51113;53.646;-113.674;2023-05-02T06:37:05;92933.88;;;18.64;27.83
64687;BME280;51113;53.646;-113.674;2023-05-02T06:39:34;92933.06;;;18.52;28.34
64687;BME280;51113;53.646;-113.674;2023-05-02T06:42:02;92932.41;;;18.55;28.01
64687;BME280;51113;53.646;-113.674;2023-05-02T06:44:31;92939.44;;;18.63;27.78
64687;BME280;51113;53.646;-113.674;2023-05-02T06:46:59;92921.97;;;18.46;28.42
64687;BME280;51113;53.646;-113.674;2023-05-02T06:49:29;92925.25;;;18.31;28.69
64687;BME280;51113;53.646;-113.674;2023-05-02T06:51:58;92948.69;;;18.36;28.63
64687;BME280;51113;53.646;-113.674;2023-05-02T06:54:26;92953.59;;;18.25;28.92
64687;BME280;51113;53.646;-113.674;2023-05-02T06:56:55;92961.84;;;18.36;28.48
64687;BME280;51113;53.646;-113.674;2023-05-02T06:59:24;92942.03;;;18.05;29.03
64687;BME280;51113;53.646;-113.674;2023-05-02T07:01:53;92947.84;;;17.78;30.37
64687;BME280;51113;53.646;-113.674;2023-05-02T07:04:21;92972.84;;;17.84;30.87
64687;BME280;51113;53.646;-113.674;2023-05-02T07:06:50;92976.00;;;17.48;31.40
64687;BME280;51113;53.646;-113.674;2023-05-02T07:09:19;92972.16;;;17.46;31.79
64687;BME280;51113;53.646;-113.674;2023-05-02T07:11:48;92982.66;;;17.46;30.31
64687;BME280;51113;53.646;-113.674;2023-05-02T07:14:16;92988.09;;;17.40;30.75
64687;BME280;51113;53.646;-113.674;2023-05-02T07:16:45;92995.06;;;17.36;31.42
64687;BME280;51113;53.646;-113.674;2023-05-02T07:19:14;92958.28;;;17.16;30.83
64687;BME280;51113;53.646;-113.674;2023-05-02T07:21:42;92961.75;;;17.07;31.40
64687;BME280;51113;53.646;-113.674;2023-05-02T07:24:11;93000.38;;;16.98;32.51
64687;BME280;51113;53.646;-113.674;2023-05-02T07:26:39;92996.56;;;17.17;32.39
64687;BME280;51113;53.646;-113.674;2023-05-02T07:29:08;92996.91;;;17.15;31.89
64687;BME280;51113;53.646;-113.674;2023-05-02T07:31:36;92995.56;;;17.00;32.58
64687;BME280;51113;53.646;-113.674;2023-05-02T07:34:05;93001.44;;;16.97;31.96
64687;BME280;51113;53.646;-113.674;2023-05-02T07:36:34;93005.41;;;17.12;31.87
64687;BME280;51113;53.646;-113.674;2023-05-02T07:39:02;92999.41;;;17.03;32.32
64687;BME280;51113;53.646;-113.674;2023-05-02T07:41:31;92981.28;;;16.89;31.82
64687;BME280;51113;53.646;-113.674;2023-05-02T07:44:00;92994.72;;;16.88;33.43
64687;BME280;51113;53.646;-113.674;2023-05-02T07:46:29;93001.03;;;16.87;32.36
64687;BME280;51113;53.646;-113.674;2023-05-02T07:48:58;92997.06;;;17.10;31.59
64687;BME280;51113;53.646;-113.674;2023-05-02T07:51:26;92973.13;;;17.11;31.85
64687;BME280;51113;53.646;-113.674;2023-05-02T07:53:56;93002.00;;;17.41;32.05
64687;BME280;51113;53.646;-113.674;2023-05-02T07:56:27;93000.06;;;17.29;32.53
64687;BME280;51113;53.646;-113.674;2023-05-02T07:58:56;92994.13;;;17.11;32.87
64687;BME280;51113;53.646;-113.674;2023-05-02T08:01:27;92983.63;;;16.82;33.60
64687;BME280;51113;53.646;-113.674;2023-05-02T08:03:59;92973.09;;;16.44;34.55
64687;BME280;51113;53.646;-113.674;2023-05-02T08:06:28;92989.66;;;16.74;32.95
64687;BME280;51113;53.646;-113.674;2023-05-02T08:08:57;93000.94;;;16.74;33.38
64687;BME280;51113;53.646;-113.674;2023-05-02T08:11:26;92987.63;;;16.79;32.75
64687;BME280;51113;53.646;-113.674;2023-05-02T08:13:54;92992.31;;;16.65;34.15
64687;BME280;51113;53.646;-113.674;2023-05-02T08:16:23;92994.34;;;16.42;34.93
64687;BME280;51113;53.646;-113.674;2023-05-02T08:18:52;92999.00;;;16.28;34.99
64687;BME280;51113;53.646;-113.674;2023-05-02T08:21:21;93005.06;;;16.11;34.45
64687;BME280;51113;53.646;-113.674;2023-05-02T08:23:49;93005.69;;;15.91;35.10
64687;BME280;51113;53.646;-113.674;2023-05-02T08:26:18;93002.69;;;15.41;36.99
64687;BME280;51113;53.646;-113.674;2023-05-02T08:28:50;93014.66;;;15.25;37.79
64687;BME280;51113;53.646;-113.674;2023-05-02T08:31:18;93013.41;;;15.13;37.53
64687;BME280;51113;53.646;-113.674;2023-05-02T08:33:47;93021.94;;;14.88;38.20
64687;BME280;51113;53.646;-113.674;2023-05-02T08:36:17;93018.38;;;14.84;37.53
64687;BME280;51113;53.646;-113.674;2023-05-02T08:38:47;93017.28;;;14.76;37.50
64687;BME280;51113;53.646;-113.674;2023-05-02T08:41:17;93021.09;;;14.70;37.55
64687;BME280;51113;53.646;-113.674;2023-05-02T08:43:46;93024.44;;;14.62;38.03
64687;BME280;51113;53.646;-113.674;2023-05-02T08:46:16;93013.47;;;14.51;39.47
64687;BME280;51113;53.646;-113.674;2023-05-02T08:48:45;93019.34;;;14.35;38.92
64687;BME280;51113;53.646;-113.674;2023-05-02T08:51:17;92987.09;;;14.08;39.15
64687;BME280;51113;53.646;-113.674;2023-05-02T08:53:51;93025.41;;;14.21;39.50
64687;BME280;51113;53.646;-113.674;2023-05-02T08:56:21;92992.66;;;14.15;38.98
64687;BME280;51113;53.646;-113.674;2023-05-02T08:58:51;92990.53;;;13.95;39.87
64687;BME280;51113;53.646;-113.674;2023-05-02T09:01:22;93021.09;;;14.17;39.48
64687;BME280;51113;53.646;-113.674;2023-05-02T09:03:51;92989.53;;;14.05;38.86
64687;BME280;51113;53.646;-113.674;2023-05-02T09:06:22;93005.34;;;14.08;38.65
64687;BME280;51113;53.646;-113.674;2023-05-02T09:08:50;93018.19;;;13.96;39.62
64687;BME280;51113;53.646;-113.674;2023-05-02T09:11:20;93022.16;;;13.94;40.10
64687;BME280;51113;53.646;-113.674;2023-05-02T09:13:50;93020.91;;;14.36;38.85
64687;BME280;51113;53.646;-113.674;2023-05-02T09:16:24;93025.72;;;14.73;38.23
64687;BME280;51113;53.646;-113.674;2023-05-02T09:18:55;93017.22;;;14.99;37.40
64687;BME280;51113;53.646;-113.674;2023-05-02T09:21:26;93018.69;;;15.39;36.54
64687;BME280;51113;53.646;-113.674;2023-05-02T09:23:56;93022.53;;;15.33;37.00
64687;BME280;51113;53.646;-113.674;2023-05-02T09:26:27;93023.78;;;15.36;36.80
64687;BME280;51113;53.646;-113.674;2023-05-02T09:29:02;93023.78;;;15.44;36.49
64687;BME280;51113;53.646;-113.674;2023-05-02T09:31:34;93029.00;;;15.36;36.66
64687;BME280;51113;53.646;-113.674;2023-05-02T09:34:22;93026.41;;;15.44;36.25
64687;BME280;51113;53.646;-113.674;2023-05-02T09:36:51;93023.00;;;15.27;36.82
64687;BME280;51113;53.646;-113.674;2023-05-02T09:39:25;93022.25;;;15.35;36.25
64687;BME280;51113;53.646;-113.674;2023-05-02T09:41:57;93021.63;;;15.38;36.21
64687;BME280;51113;53.646;-113.674;2023-05-02T09:44:35;93021.06;;;15.01;37.26
64687;BME280;51113;53.646;-113.674;2023-05-02T09:47:04;93021.03;;;14.93;37.86
64687;BME280;51113;53.646;-113.674;2023-05-02T09:49:41;93024.81;;;14.78;37.81
64687;BME280;51113;53.646;-113.674;2023-05-02T09:52:17;93026.06;;;14.49;38.53
64687;BME280;51113;53.646;-113.674;2023-05-02T09:54:47;93028.03;;;14.75;37.92
64687;BME280;51113;53.646;-113.674;2023-05-02T09:57:18;93031.38;;;14.67;38.30
64687;BME280;51113;53.646;-113.674;2023-05-02T09:59:55;93034.25;;;14.88;37.79
64687;BME280;51113;53.646;-113.674;2023-05-02T10:02:25;93041.28;;;14.78;38.02
64687;BME280;51113;53.646;-113.674;2023-05-02T10:04:58;93039.00;;;14.85;38.07
64687;BME280;51113;53.646;-113.674;2023-05-02T10:07:29;93036.56;;;14.89;38.22
64687;BME280;51113;53.646;-113.674;2023-05-02T10:09:59;93014.00;;;14.62;38.36
64687;BME280;51113;53.646;-113.674;2023-05-02T10:12:29;93051.47;;;14.89;37.81
64687;BME280;51113;53.646;-113.674;2023-05-02T10:15:03;93016.69;;;14.48;38.23
64687;BME280;51113;53.646;-113.674;2023-05-02T10:17:38;93055.97;;;14.66;38.53
64687;BME280;51113;53.646;-113.674;2023-05-02T10:20:13;93056.97;;;14.78;38.30
64687;BME280;51113;53.646;-113.674;2023-05-02T10:22:46;93056.84;;;14.83;37.94
64687;BME280;51113;53.646;-113.674;2023-05-02T10:25:18;93057.69;;;14.70;38.13
64687;BME280;51113;53.646;-113.674;2023-05-02T10:27:47;93057.00;;;14.56;38.38
64687;BME280;51113;53.646;-113.674;2023-05-02T10:30:16;93026.19;;;14.22;38.92
64687;BME280;51113;53.646;-113.674;2023-05-02T10:32:46;93060.94;;;14.45;38.75
64687;BME280;51113;53.646;-113.674;2023-05-02T10:35:16;93057.56;;;14.44;38.70
64687;BME280;51113;53.646;-113.674;2023-05-02T10:37:46;93055.41;;;14.24;39.20
64687;BME280;51113;53.646;-113.674;2023-05-02T10:40:17;93059.06;;;14.23;39.26
64687;BME280;51113;53.646;-113.674;2023-05-02T10:42:48;93071.00;;;14.15;39.40
64687;BME280;51113;53.646;-113.674;2023-05-02T10:45:35;93074.25;;;13.99;39.97
64687;BME280;51113;53.646;-113.674;2023-05-02T10:48:20;93076.59;;;13.86;40.12
64687;BME280;51113;53.646;-113.674;2023-05-02T10:50:59;93085.16;;;13.65;41.02
64687;BME280;51113;53.646;-113.674;2023-05-02T10:53:37;93085.19;;;13.51;40.96
64687;BME280;51113;53.646;-113.674;2023-05-02T10:56:08;93093.78;;;13.51;41.41
64687;BME280;51113;53.646;-113.674;2023-05-02T10:58:38;93085.97;;;13.51;41.33
64687;BME280;51113;53.646;-113.674;2023-05-02T11:04:05;93032.44;;;12.99;42.10
64687;BME280;51113;53.646;-113.674;2023-05-02T11:06:37;93089.25;;;13.43;41.71
64687;BME280;51113;53.646;-113.674;2023-05-02T11:11:57;93085.69;;;13.39;41.75
64687;BME280;51113;53.646;-113.674;2023-05-02T11:24:47;93098.50;;;13.08;43.39
64687;BME280;51113;53.646;-113.674;2023-05-02T11:30:05;93100.63;;;13.06;43.23
64687;BME280;51113;53.646;-113.674;2023-05-02T11:35:26;93076.28;;;12.97;43.26
64687;BME280;51113;53.646;-113.674;2023-05-02T11:40:26;93057.34;;;12.91;43.57
64687;BME280;51113;53.646;-113.674;2023-05-02T11:42:56;93118.72;;;13.30;43.25
64687;BME280;51113;53.646;-113.674;2023-05-02T11:45:35;93119.97;;;13.33;42.77
64687;BME280;51113;53.646;-113.674;2023-05-02T11:48:05;93128.84;;;13.32;42.93
64687;BME280;51113;53.646;-113.674;2023-05-02T11:50:58;93125.97;;;13.19;43.40
64687;BME280;51113;53.646;-113.674;2023-05-02T11:53:31;93108.91;;;12.94;43.83
64687;BME280;51113;53.646;-113.674;2023-05-02T11:56:02;93140.59;;;13.02;44.60
64687;BME280;51113;53.646;-113.674;2023-05-02T11:58:32;93136.53;;;12.96;44.42
64687;BME280;51113;53.646;-113.674;2023-05-02T12:01:14;93138.34;;;12.95;44.38
64687;BME280;51113;53.646;-113.674;2023-05-02T12:03:44;93151.75;;;12.88;44.94
64687;BME280;51113;53.646;-113.674;2023-05-02T12:06:16;93146.16;;;12.81;45.14
64687;BME280;51113;53.646;-113.674;2023-05-02T12:08:48;93147.53;;;12.92;45.02
64687;BME280;51113;53.646;-113.674;2023-05-02T12:11:17;93121.81;;;12.72;44.72
64687;BME280;51113;53.646;-113.674;2023-05-02T12:13:46;93158.03;;;12.87;45.31
64687;BME280;51113;53.646;-113.674;2023-05-02T12:16:16;93169.59;;;12.81;45.51
64687;BME280;51113;53.646;-113.674;2023-05-02T12:18:46;93136.25;;;12.65;45.14
64687;BME280;51113;53.646;-113.674;2023-05-02T12:21:16;93170.25;;;12.73;45.34
64687;BME280;51113;53.646;-113.674;2023-05-02T12:23:44;93167.53;;;12.65;45.78
64687;BME280;51113;53.646;-113.674;2023-05-02T12:28:50;93168.78;;;12.67;46.23
64687;BME280;51113;53.646;-113.674;2023-05-02T12:31:19;93177.94;;;12.65;46.09
64687;BME280;51113;53.646;-113.674;2023-05-02T12:33:49;93170.53;;;12.72;46.08
64687;BME280;51113;53.646;-113.674;2023-05-02T12:36:19;93162.72;;;12.72;45.86
64687;BME280;51113;53.646;-113.674;2023-05-02T12:38:53;93177.91;;;12.83;46.29
64687;BME280;51113;53.646;-113.674;2023-05-02T12:41:34;93186.13;;;12.90;46.06
64687;BME280;51113;53.646;-113.674;2023-05-02T12:44:04;93152.22;;;12.77;45.71
64687;BME280;51113;53.646;-113.674;2023-05-02T12:46:33;93168.81;;;12.81;45.91
64687;BME280;51113;53.646;-113.674;2023-05-02T12:49:04;93193.50;;;13.02;45.71
64687;BME280;51113;53.646;-113.674;2023-05-02T12:51:35;93197.28;;;13.10;45.64
64687;BME280;51113;53.646;-113.674;2023-05-02T12:54:04;93197.78;;;13.12;46.15
64687;BME280;51113;53.646;-113.674;2023-05-02T12:56:40;93200.81;;;13.19;45.73
64687;BME280;51113;53.646;-113.674;2023-05-02T12:59:28;93202.38;;;13.34;45.39
64687;BME280;51113;53.646;-113.674;2023-05-02T13:01:58;93204.22;;;13.47;45.31
64687;BME280;51113;53.646;-113.674;2023-05-02T13:04:53;93195.06;;;13.63;44.48
64687;BME280;51113;53.646;-113.674;2023-05-02T13:07:21;93193.59;;;13.84;44.37
64687;BME280;51113;53.646;-113.674;2023-05-02T13:09:49;93167.41;;;13.76;43.68
64687;BME280;51113;53.646;-113.674;2023-05-02T13:12:18;93170.38;;;13.97;42.79
64687;BME280;51113;53.646;-113.674;2023-05-02T13:14:46;93212.41;;;14.22;42.74
64687;BME280;51113;53.646;-113.674;2023-05-02T13:17:15;93222.06;;;14.36;42.26
64687;BME280;51113;53.646;-113.674;2023-05-02T13:19:44;93215.47;;;14.52;42.28
64687;BME280;51113;53.646;-113.674;2023-05-02T13:22:27;93227.72;;;14.65;41.76
64687;BME280;51113;53.646;-113.674;2023-05-02T13:24:56;93231.34;;;14.78;41.84
64687;BME280;51113;53.646;-113.674;2023-05-02T13:27:24;93231.91;;;14.89;41.46
64687;BME280;51113;53.646;-113.674;2023-05-02T13:29:53;93205.88;;;14.83;41.03
64687;BME280;51113;53.646;-113.674;2023-05-02T13:32:21;93221.78;;;15.18;40.71
64687;BME280;51113;53.646;-113.674;2023-05-02T13:34:50;93219.16;;;15.18;40.94
64687;BME280;51113;53.646;-113.674;2023-05-02T13:37:18;93227.25;;;15.30;40.76
64687;BME280;51113;53.646;-113.674;2023-05-02T13:39:46;93231.16;;;15.41;40.50